• Join FlightAware (Why Join?)
  • Login
  • US Flag 
02:59AM EDT


 

Airport Tracker/Info


-or-


 

Live Flight TrackerFlight Track Log ✈ EGF2787 ✈ 31-Jan-2014 ✈ KBMI - KDFW

Flight Track Log - Related Links

Times and Time Zones

All times are in EST time to prevent confusion due to time zone crossing. See the EGF2787 flight status page for this flight to view local times or setup timezone preferences in your user account.

Time Position Orientation Groundspeed Altitude Reporting Facility
EST Latitude Longitude Course Direction KTS MPH feet Rate Location/Type
07:40AM 40.4417 -88.9419 221° Southwest 180 207 2,200  Level Kansas City Center
07:41AM 40.4003 -89.0014 228° Southwest 217 250 4,400 2,160 Climbing Kansas City Center
07:42AM 40.3506 -89.0625 223° Southwest 229 264 6,700 2,400 Climbing Kansas City Center
07:43AM 40.2410 -89.1847 237° Southwest  Level FlightAware Approximate
07:43AM 40.2869 -89.1350 221° Southwest 244 281 9,400  Level Kansas City Center
07:44AM 40.1805 -89.2532 221° Southwest  Level FlightAware Approximate
07:44AM 40.2308 -89.2006 222° Southwest 263 303 10,500  Level Kansas City Center
07:45AM 40.1194 -89.3221 221° Southwest  Level FlightAware Approximate
07:45AM 40.1672 -89.2778 223° Southwest 300 345 11,600  Level Kansas City Center
07:46AM 40.1006 -89.3567 222° Southwest 317 365 12,600 960 Climbing Kansas City Center
07:47AM 40.0322 -89.4375 222° Southwest 327 376 13,600 1,080 Climbing Kansas City Center
07:48AM 39.9631 -89.5197 222° Southwest 334 384 14,900 1,260 Climbing Kansas City Center
07:49AM 39.8964 -89.5969 222° Southwest 325 374 16,300 1,320 Climbing Kansas City Center
07:50AM 39.8306 -89.6753 222° Southwest 320 368 17,600 1,080 Climbing Kansas City Center
07:51AM 39.7650 -89.7494 221° Southwest 315 362 18,500 900 Climbing Kansas City Center
07:52AM 39.7036 -89.8225 222° Southwest 316 364 19,400 900 Climbing Kansas City Center
07:53AM 39.6372 -89.8997 222° Southwest 321 369 20,400 960 Climbing Kansas City Center
07:54AM 39.5686 -89.9789 222° Southwest 327 376 21,400 960 Climbing Kansas City Center
07:55AM 39.4997 -90.0578 221° Southwest 330 380 22,400 900 Climbing Kansas City Center
07:56AM 39.4306 -90.1375 222° Southwest 333 383 23,300 1,020 Climbing Kansas City Center
07:57AM 39.3486 -90.2333 222° Southwest 332 382 24,500 1,020 Climbing Kansas City Center
07:58AM 39.2797 -90.3108 221° Southwest 331 381 25,400 900 Climbing Kansas City Center
07:59AM 39.2108 -90.3897 222° Southwest 332 382 26,400 900 Climbing Kansas City Center
08:00AM 39.1428 -90.4683 222° Southwest 331 381 27,300 900 Climbing Kansas City Center
08:01AM 39.0747 -90.5447 221° Southwest 328 377 28,300 960 Climbing Kansas City Center
08:02AM 39.0083 -90.6197 221° Southwest 323 372 29,300 900 Climbing Kansas City Center
08:03AM 38.9436 -90.6922 221° Southwest 314 361 30,200 900 Climbing Kansas City Center
08:04AM 38.8783 -90.7681 222° Southwest 316 364 31,200 900 Climbing Kansas City Center
08:05AM 38.8131 -90.8406 221° Southwest 315 362 32,100 900 Climbing Kansas City Center
08:06AM 38.7481 -90.9128 221° Southwest 313 360 33,100 960 Climbing Kansas City Center
08:07AM 38.6853 -90.9836 221° Southwest 308 354 34,100 1,020 Climbing Kansas City Center
08:08AM 38.6181 -91.0753 227° Southwest 299 344 35,200 900 Climbing Kansas City Center
08:09AM 38.5644 -91.1492 227° Southwest 290 334 36,000 360 Climbing Kansas City Center
08:10AM 38.5089 -91.2242 227° Southwest 290 334 36,000  Level Kansas City Center
08:11AM 38.4497 -91.3036 226° Southwest 304 350 36,000  Level Kansas City Center
08:12AM 38.3828 -91.3919 226° Southwest 317 365 36,000  Level Kansas City Center
08:13AM 38.3214 -91.4753 227° Southwest 321 369 36,000  Level Kansas City Center
08:14AM 38.2592 -91.5572 226° Southwest 320 368 36,000  Level Kansas City Center
08:15AM 38.1958 -91.6400 226° Southwest 323 372 36,000  Level Kansas City Center
08:16AM 38.1325 -91.7222 226° Southwest 322 371 36,000  Level Kansas City Center
08:17AM 38.0703 -91.8053 226° Southwest 322 371 36,000  Level Kansas City Center
08:18AM 38.0075 -91.8881 226° Southwest 322 371 36,000  Level Kansas City Center
08:19AM 37.9442 -91.9708 226° Southwest 323 372 36,000  Level Kansas City Center
08:20AM 37.8808 -92.0556 227° Southwest 325 374 36,000  Level Kansas City Center
08:21AM 37.8153 -92.1406 226° Southwest 325 374 36,000  Level Kansas City Center
08:22AM 37.7514 -92.2225 225° Southwest 327 376 36,000  Level Kansas City Center
08:23AM 37.6878 -92.3056 226° Southwest 329 379 36,000  Level Kansas City Center
08:25AM 37.6236 -92.3900 226° Southwest 327 376 36,000  Level Kansas City Center
08:26AM 37.5589 -92.4733 226° Southwest 328 377 36,000  Level Kansas City Center
08:27AM 37.4950 -92.5561 226° Southwest 329 379 36,000  Level Kansas City Center
08:28AM 37.4317 -92.6392 226° Southwest 328 377 36,000  Level Kansas City Center
08:29AM 37.3656 -92.7197 224° Southwest 328 377 36,000  Level Kansas City Center
08:30AM 37.3028 -92.8019 226° Southwest 326 375 36,000  Level Kansas City Center
08:31AM 37.2386 -92.8842 226° Southwest 327 376 36,000  Level Kansas City Center
08:32AM 37.1733 -92.9661 225° Southwest 328 377 36,000  Level Kansas City Center
08:33AM 37.1072 -93.0456 224° Southwest 328 377 36,000  Level Kansas City Center
08:34AM 37.0233 -93.1075 211° Southwest 343 395 36,000  Level Kansas City Center
08:35AM 36.9408 -93.1694 211° Southwest 344 396 36,000  Level Kansas City Center
08:36AM 36.8628 -93.2317 213° Southwest 346 398 36,000  Level Kansas City Center
08:37AM 36.7831 -93.2972 213° Southwest 344 396 36,000  Level Kansas City Center
08:38AM 36.6847 -93.3747 212° Southwest 348 400 36,000  Level Kansas City Center
08:39AM 36.6044 -93.4417 214° Southwest 348 400 36,000  Level Kansas City Center
08:40AM 36.5219 -93.5072 213° Southwest 351 404 36,000  Level Kansas City Center
08:41AM 36.4397 -93.5722 212° Southwest 351 404 36,000  Level Kansas City Center
08:42AM 36.3408 -93.6522 213° Southwest 352 405 36,000  Level Memphis Center
08:43AM 36.2583 -93.7181 213° Southwest 353 406 36,000  Level Memphis Center
08:44AM 36.1756 -93.7825 212° Southwest 354 407 36,000  Level Memphis Center
08:45AM 36.0925 -93.8478 212° Southwest 354 407 36,000  Level Memphis Center
08:46AM 36.0089 -93.9133 212° Southwest 355 409 36,000  Level Memphis Center
08:47AM 35.9247 -93.9794 212° Southwest 357 411 36,000  Level Memphis Center
08:48AM 35.8222 -94.0589 212° Southwest 358 412 36,000  Level Memphis Center
08:49AM 35.7361 -94.1256 212° Southwest 361 415 36,000  Level Memphis Center
08:50AM 35.6506 -94.1922 212° Southwest 362 417 36,000  Level Memphis Center
08:51AM 35.5686 -94.2547 212° Southwest 361 415 36,000  Level Memphis Center
08:52AM 35.4833 -94.3208 212° Southwest 363 418 36,000  Level Memphis Center
08:53AM 35.3931 -94.3897 212° Southwest 362 417 36,000  Level Memphis Center
08:54AM 35.2947 -94.4656 212° Southwest 366 421 36,000  Level Memphis Center
08:55AM 35.2083 -94.5317 212° Southwest 367 422 36,000  Level Memphis Center
08:56AM 35.1228 -94.5975 212° Southwest 366 421 36,000  Level Memphis Center
08:57AM 35.0278 -94.6689 212° Southwest 367 422 36,000  Level Memphis Center
08:58AM 34.9500 -94.7475 220° Southwest 363 418 36,000  Level Memphis Center
08:59AM 34.8756 -94.8289 222° Southwest 361 415 36,000  Level Memphis Center
09:00AM 34.8067 -94.9031 221° Southwest 360 414 36,000 -300 Level Memphis Center
09:01AM 34.7247 -94.9906 221° Southwest 359 413 35,500 -780 Descending Memphis Center
09:03AM 34.6511 -95.0697 222° Southwest 356 410 34,500 -1,020 Descending Memphis Center
09:04AM 34.5803 -95.1447 221° Southwest 345 397 33,500 -1,020 Descending Memphis Center
09:05AM 34.4978 -95.2339 222° Southwest 355 409 32,400 -1,020 Descending Memphis Center
09:06AM 34.3786 -95.3122 208° Southwest 390 449 31,100 -1,020 Descending Fort Worth Center
09:07AM 34.2622 -95.2931 172° South 421 484 30,000 -1,140 Descending Fort Worth Center
09:08AM 34.1289 -95.2931 180° South 404 465 28,800 -1,080 Descending Fort Worth Center
09:09AM 34.0478 -95.3633 216° Southwest 379 436 27,800 -1,020 Descending Fort Worth Center
09:10AM 33.9900 -95.4597 234° Southwest 363 418 26,800 -1,020 Descending Fort Worth Center
09:11AM 33.9361 -95.5528 235° Southwest 346 398 25,700 -1,020 Descending Fort Worth Center
09:12AM 33.8878 -95.6358 235° Southwest 309 356 24,800 -840 Descending Fort Worth Center
09:13AM 33.8336 -95.7303 235° Southwest 289 333 24,000 -720 Descending Fort Worth Center
09:14AM 33.7856 -95.8117 235° Southwest 297 342 23,400 -720 Descending Fort Worth Center
09:15AM 33.7314 -95.9025 234° Southwest 307 353 22,600 -1,380 Descending Fort Worth Center
09:16AM 33.6917 -95.9908 242° Southwest 304 350 20,600 -1,920 Descending Fort Worth Center
09:17AM 33.6539 -96.0694 240° Southwest 279 321 18,700 -2,040 Descending Fort Worth Center
09:18AM 33.6006 -96.1411 228° Southwest 268 308 16,500 -2,040 Descending Fort Worth Center
09:19AM 33.5561 -96.2089 232° Southwest 260 299 14,500 -1,920 Descending Fort Worth Center
09:20AM 33.5083 -96.2708 227° Southwest 255 293 12,600 -1,740 Descending Fort Worth Center
09:21AM 33.4550 -96.3328 224° Southwest 250 288 11,000 -780 Descending Fort Worth Center
09:22AM 33.4042 -96.3925 224° Southwest 255 293 11,000 -300 Level Fort Worth Center
09:23AM 33.3597 -96.4669 234° Southwest 252 290 10,400 -1,020 Descending Fort Worth Center
09:25AM 33.3275 -96.5408 242° Southwest 251 289 8,900 -1,500 Descending Fort Worth Center
09:26AM 33.2969 -96.6125 243° Southwest 243 280 7,400 -1,500 Descending Fort Worth Center
09:27AM 33.2728 -96.6908 250° West 239 275 5,800 -1,200 Descending Fort Worth Center
09:28AM 33.2692 -96.7722 267° West 246 283 5,000 -420 Descending Fort Worth Center
09:29AM 33.2628 -96.8581 265° West 242 278 5,000 -60 Level Fort Worth Center
09:30AM 33.2303 -96.9311 242° Southwest 254 292 4,900 -540 Descending Fort Worth Center
09:31AM 33.1789 -96.9864 222° Southwest 240 276 4,000 -480 Descending Fort Worth Center
09:32AM 33.1231 -97.0167 204° Southwest 223 257 4,000 -240 Level Fort Worth Center
09:33AM 33.0667 -97.0167 180° South 210 242 3,600 -780 Descending Dallas / Fort Worth TRACON
09:34AM 33.0167 -97.0167 180° South 194 223 2,600 -960 Descending Dallas / Fort Worth TRACON
09:35AM 32.9667 -97.0167 180° South 140 161 1,700 -780 Descending Dallas / Fort Worth TRACON
09:36AM 32.9333 -97.0167 180° South 137 158 1,000 -720 Descending Dallas / Fort Worth TRACON